createdAt,value
2022-11-28T00:01:26.773Z,88.34
2022-11-28T00:03:53.815Z,88.33
2022-11-28T00:06:21.192Z,88.35
2022-11-28T00:08:48.245Z,88.47
2022-11-28T00:11:16.575Z,88.44
2022-11-28T00:13:44.335Z,88.38
2022-11-28T00:16:16.011Z,88.44
2022-11-28T00:18:43.219Z,88.44
2022-11-28T00:21:12.757Z,88.41
2022-11-28T00:23:40.017Z,88.47
2022-11-28T00:26:15.127Z,88.44
2022-11-28T00:28:42.267Z,88.53
2022-11-28T00:31:20.670Z,88.56
2022-11-28T00:33:47.872Z,88.62
2022-11-28T00:36:14.972Z,88.54
2022-11-28T00:38:42.127Z,88.62
2022-11-28T00:41:17.735Z,88.71
2022-11-28T00:43:47.016Z,88.72
2022-11-28T00:46:14.920Z,88.81
2022-11-28T00:48:42.091Z,88.67
2022-11-28T00:51:12.463Z,88.72
2022-11-28T00:53:41.956Z,88.67
2022-11-28T00:56:11.003Z,88.71
2022-11-28T00:58:39.040Z,88.64
2022-11-28T01:01:17.893Z,88.60
2022-11-28T01:03:45.507Z,88.73
2022-11-28T01:06:14.894Z,88.76
2022-11-28T01:08:41.710Z,88.69
2022-11-28T01:11:13.140Z,88.66
2022-11-28T01:13:41.182Z,88.58
2022-11-28T01:16:08.931Z,88.66
2022-11-28T01:18:36.992Z,88.64
2022-11-28T01:21:04.306Z,88.64
2022-11-28T01:23:31.150Z,88.53
2022-11-28T01:25:57.910Z,88.56
2022-11-28T01:28:24.838Z,88.52
2022-11-28T01:30:51.670Z,88.48
2022-11-28T01:33:18.514Z,88.57
2022-11-28T01:35:54.892Z,88.53
2022-11-28T01:38:22.392Z,88.57
2022-11-28T01:40:50.349Z,88.53
2022-11-28T01:43:17.859Z,88.55
2022-11-28T01:45:45.030Z,88.59
2022-11-28T01:48:15.803Z,88.60
2022-11-28T01:50:47.842Z,88.55
2022-11-28T01:53:15.068Z,88.46
2022-11-28T01:56:03.253Z,88.42
2022-11-28T01:58:32.682Z,88.41
2022-11-28T02:00:59.688Z,88.46
2022-11-28T02:03:33.575Z,88.45
2022-11-28T02:06:00.486Z,88.45
2022-11-28T02:08:27.435Z,88.47
2022-11-28T02:10:54.184Z,88.47
2022-11-28T02:13:27.118Z,88.50
2022-11-28T02:16:08.774Z,88.52
2022-11-28T02:18:54.150Z,88.44
2022-11-28T02:21:52.501Z,88.53
2022-11-28T02:25:09.617Z,88.51
2022-11-28T02:28:06.857Z,88.44
2022-11-28T02:31:15.578Z,88.44
2022-11-28T02:33:48.989Z,88.38
2022-11-28T02:36:28.009Z,88.38
2022-11-28T02:39:09.208Z,88.31
2022-11-28T02:42:01.221Z,88.42
2022-11-28T02:44:54.120Z,88.38
2022-11-28T02:47:36.497Z,88.37
2022-11-28T02:50:12.067Z,88.39
2022-11-28T02:52:44.124Z,88.32
2022-11-28T02:55:12.403Z,88.33
2022-11-28T02:57:52.184Z,88.30
2022-11-28T03:00:31.768Z,88.16
2022-11-28T03:03:36.812Z,88.16
2022-11-28T03:06:27.315Z,88.19
2022-11-28T03:09:14.982Z,88.31
2022-11-28T03:12:09.904Z,88.32
2022-11-28T03:14:39.340Z,88.40
2022-11-28T03:17:11.729Z,88.34
2022-11-28T03:19:50.370Z,88.28
2022-11-28T03:22:38.669Z,88.33
2022-11-28T03:25:08.257Z,88.17
2022-11-28T03:27:40.865Z,88.14
2022-11-28T03:30:36.808Z,88.15
2022-11-28T03:33:05.607Z,88.27
2022-11-28T03:35:38.723Z,88.16
2022-11-28T03:38:13.099Z,88.10
2022-11-28T03:40:44.775Z,88.07
2022-11-28T03:43:17.133Z,88.14
2022-11-28T03:45:58.727Z,88.12
2022-11-28T03:48:36.169Z,88.03
2022-11-28T03:51:14.756Z,88.12
2022-11-28T03:54:13.221Z,88.09
2022-11-28T03:56:45.166Z,88.22
2022-11-28T03:59:34.745Z,88.32
2022-11-28T04:02:13.495Z,88.34
2022-11-28T04:05:09.118Z,88.26
2022-11-28T04:07:46.466Z,88.35
2022-11-28T04:10:21.463Z,88.31
2022-11-28T04:13:00.599Z,88.38
2022-11-28T04:15:56.510Z,88.37
2022-11-28T04:18:49.867Z,88.52
2022-11-28T04:21:41.381Z,88.53
2022-11-28T04:24:14.570Z,88.39
2022-11-28T04:26:53.682Z,88.44
2022-11-28T04:29:23.547Z,88.31
2022-11-28T04:31:53.957Z,88.35
2022-11-28T04:34:22.139Z,88.45
2022-11-28T04:36:50.203Z,88.39
2022-11-28T04:39:23.616Z,88.43
2022-11-28T04:41:54.768Z,88.35
2022-11-28T04:44:42.839Z,88.38
2022-11-28T04:47:10.633Z,88.52
2022-11-28T04:49:37.970Z,88.41
2022-11-28T04:52:14.811Z,88.44
2022-11-28T04:54:56.528Z,88.44
2022-11-28T04:57:29.269Z,88.34
2022-11-28T04:59:57.499Z,88.46
2022-11-28T05:02:26.033Z,88.25
2022-11-28T05:04:55.684Z,88.34
2022-11-28T05:07:24.740Z,88.18
2022-11-28T05:09:51.834Z,88.19
2022-11-28T05:12:18.717Z,88.22
2022-11-28T05:14:45.520Z,88.30
2022-11-28T05:17:13.480Z,88.35
2022-11-28T05:19:40.403Z,88.09
2022-11-28T05:22:07.267Z,88.28
2022-11-28T05:24:34.045Z,88.41
2022-11-28T05:27:00.951Z,88.35
2022-11-28T05:29:27.724Z,88.40
2022-11-28T05:31:54.639Z,88.24
2022-11-28T05:34:21.503Z,88.33
2022-11-28T05:36:48.391Z,88.44
2022-11-28T05:39:15.181Z,88.38
2022-11-28T05:41:42.049Z,88.44
2022-11-28T05:44:10.448Z,88.51
2022-11-28T05:46:37.709Z,88.44
2022-11-28T05:49:04.514Z,88.40
2022-11-28T05:51:31.373Z,88.42
2022-11-28T05:53:58.172Z,88.28
2022-11-28T05:56:25.046Z,88.31
2022-11-28T05:58:54.252Z,88.32
2022-11-28T06:01:24.954Z,88.08
2022-11-28T06:03:58.067Z,88.18
2022-11-28T06:06:26.435Z,88.04
2022-11-28T06:08:53.306Z,88.07
2022-11-28T06:11:21.949Z,88.16
2022-11-28T06:13:49.560Z,88.04
2022-11-28T06:16:22.500Z,87.99
2022-11-28T06:18:56.612Z,87.97
2022-11-28T06:21:24.277Z,87.84
2022-11-28T06:23:51.236Z,87.93
2022-11-28T06:26:22.012Z,87.93
2022-11-28T06:28:49.328Z,88.01
2022-11-28T06:31:20.922Z,87.79
2022-11-28T06:33:48.487Z,88.09
2022-11-28T06:36:16.869Z,88.09
2022-11-28T06:38:44.155Z,88.11
2022-11-28T06:41:13.690Z,87.96
2022-11-28T06:43:41.225Z,87.96
2022-11-28T06:46:21.425Z,87.91
2022-11-28T06:48:50.381Z,87.96
2022-11-28T06:51:18.160Z,87.98
2022-11-28T06:53:45.115Z,88.08
2022-11-28T06:56:17.544Z,88.09
2022-11-28T06:58:45.295Z,88.10
2022-11-28T07:01:20.475Z,88.12
2022-11-28T07:03:48.560Z,88.10
2022-11-28T07:06:16.793Z,88.02
2022-11-28T07:08:43.987Z,87.97
2022-11-28T07:11:19.965Z,87.88
2022-11-28T07:13:48.654Z,87.99
2022-11-28T07:16:18.733Z,87.98
2022-11-28T07:18:45.850Z,87.89
2022-11-28T07:21:14.770Z,87.89
2022-11-28T07:23:43.392Z,87.87
2022-11-28T07:26:11.861Z,87.84
2022-11-28T07:28:39.110Z,87.89
2022-11-28T07:31:18.076Z,87.97
2022-11-28T07:33:47.945Z,87.66
2022-11-28T07:36:17.957Z,87.73
2022-11-28T07:38:49.246Z,87.68
2022-11-28T07:41:16.934Z,87.66
2022-11-28T07:43:45.465Z,87.77
2022-11-28T07:46:16.257Z,87.81
2022-11-28T07:48:43.528Z,87.77
2022-11-28T07:51:21.701Z,87.91
2022-11-28T07:53:49.026Z,87.63
2022-11-28T07:56:23.386Z,87.78
2022-11-28T07:58:51.078Z,87.80
2022-11-28T08:01:23.603Z,87.63
2022-11-28T08:03:52.517Z,87.64
2022-11-28T08:06:22.837Z,86.98
2022-11-28T08:08:50.001Z,87.90
2022-11-28T08:11:18.789Z,87.51
2022-11-28T08:13:46.249Z,87.55
2022-11-28T08:16:14.798Z,87.31
2022-11-28T08:18:42.103Z,87.28
2022-11-28T08:21:14.974Z,87.32
2022-11-28T08:23:42.315Z,87.23
2022-11-28T08:26:11.577Z,87.16
2022-11-28T08:28:38.357Z,87.09
2022-11-28T08:31:15.737Z,87.19
2022-11-28T08:33:44.049Z,87.19
2022-11-28T08:36:12.583Z,87.06
2022-11-28T08:38:39.563Z,87.13
2022-11-28T08:41:08.688Z,87.25
2022-11-28T08:43:37.137Z,87.07
2022-11-28T08:46:10.672Z,87.08
2022-11-28T08:48:38.705Z,86.93
2022-11-28T08:51:06.053Z,87.11
2022-11-28T08:53:33.041Z,87.24
2022-11-28T08:56:00.617Z,87.03
2022-11-28T08:58:27.552Z,87.00
2022-11-28T09:00:54.336Z,87.11
2022-11-28T09:03:21.447Z,87.23
2022-11-28T09:05:48.831Z,87.06
2022-11-28T09:08:18.668Z,87.02
2022-11-28T09:10:46.356Z,87.02
2022-11-28T09:13:14.451Z,87.22
2022-11-28T09:15:42.986Z,87.18
2022-11-28T09:18:11.262Z,87.25
2022-11-28T09:20:38.676Z,87.11
2022-11-28T09:23:06.257Z,87.12
2022-11-28T09:25:35.807Z,87.19
2022-11-28T09:28:02.658Z,87.22
2022-11-28T09:30:29.640Z,87.15
2022-11-28T09:32:56.554Z,87.20
2022-11-28T09:35:23.400Z,87.19
2022-11-28T09:37:50.263Z,86.94
2022-11-28T09:40:17.959Z,87.02
2022-11-28T09:42:46.891Z,87.00
2022-11-28T09:45:22.261Z,86.91
2022-11-28T09:47:56.352Z,86.93
2022-11-28T09:50:26.649Z,86.98
2022-11-28T09:53:07.881Z,87.06
2022-11-28T09:55:54.246Z,87.03
2022-11-28T09:58:41.371Z,87.00
2022-11-28T10:01:11.103Z,87.09
2022-11-28T10:03:43.986Z,87.06
2022-11-28T10:06:28.690Z,87.01
2022-11-28T10:08:55.503Z,86.96
2022-11-28T10:11:41.861Z,87.15
2022-11-28T10:14:36.348Z,87.08
2022-11-28T10:17:05.944Z,87.00
2022-11-28T10:19:57.603Z,87.06
2022-11-28T10:22:53.769Z,87.17
2022-11-28T10:25:35.507Z,87.30
2022-11-28T10:28:11.547Z,87.21
2022-11-28T10:30:41.458Z,87.12
2022-11-28T10:33:21.919Z,87.36
2022-11-28T10:35:58.166Z,87.35
2022-11-28T10:38:27.846Z,87.38
2022-11-28T10:41:12.824Z,87.34
2022-11-28T10:43:55.808Z,87.35
2022-11-28T10:46:51.736Z,87.36
2022-11-28T10:49:49.069Z,87.41
2022-11-28T10:52:26.351Z,87.41
2022-11-28T10:55:19.081Z,87.46
2022-11-28T10:57:58.029Z,87.44
2022-11-28T11:00:25.008Z,87.38
2022-11-28T11:02:56.801Z,87.44
2022-11-28T11:05:27.094Z,87.35
2022-11-28T11:08:05.405Z,87.55
2022-11-28T11:10:35.309Z,87.55
2022-11-28T11:13:23.699Z,87.53
2022-11-28T11:15:59.979Z,87.51
2022-11-28T11:18:32.797Z,87.61
2022-11-28T11:21:14.071Z,87.61
2022-11-28T11:23:40.929Z,87.69
2022-11-28T11:26:10.441Z,87.77
2022-11-28T11:28:53.220Z,87.66
2022-11-28T11:31:26.667Z,87.74
2022-11-28T11:34:16.304Z,87.81
2022-11-28T11:36:43.137Z,87.93
2022-11-28T11:39:12.643Z,87.86
2022-11-28T11:41:59.186Z,87.92
2022-11-28T11:44:34.244Z,87.79
2022-11-28T11:47:10.001Z,87.91
2022-11-28T11:49:44.149Z,88.03
2022-11-28T11:52:27.450Z,87.82
2022-11-28T11:54:54.234Z,87.82
2022-11-28T11:57:44.316Z,87.90
2022-11-28T12:00:18.949Z,87.96
2022-11-28T12:03:03.980Z,87.88
2022-11-28T12:06:06.118Z,87.95
2022-11-28T12:08:43.641Z,87.85
2022-11-28T12:11:16.234Z,88.03
2022-11-28T12:13:43.203Z,88.07
2022-11-28T12:16:09.973Z,88.06
2022-11-28T12:19:28.166Z,88.08
2022-11-28T12:21:54.908Z,88.05
2022-11-28T12:24:33.343Z,88.11
2022-11-28T12:27:19.441Z,88.10
2022-11-28T12:30:05.194Z,88.12
2022-11-28T12:33:07.252Z,88.25
2022-11-28T12:35:41.760Z,88.20
2022-11-28T12:38:23.528Z,88.23
2022-11-28T12:40:53.073Z,88.25
2022-11-28T12:43:30.529Z,88.47
2022-11-28T12:46:20.271Z,88.37
2022-11-28T12:49:05.902Z,88.44
2022-11-28T12:51:38.470Z,88.50
2022-11-28T12:54:23.516Z,88.44
2022-11-28T12:56:56.505Z,88.55
2022-11-28T12:59:29.596Z,88.47
2022-11-28T13:02:16.644Z,88.49
2022-11-28T13:05:17.256Z,88.60
2022-11-28T13:08:12.383Z,88.60
2022-11-28T13:10:39.150Z,88.64
2022-11-28T13:13:24.055Z,88.67
2022-11-28T13:16:00.689Z,88.61
2022-11-28T13:19:02.806Z,88.69
2022-11-28T13:21:47.437Z,88.75
2022-11-28T13:24:40.572Z,88.58
2022-11-28T13:27:22.309Z,88.60
2022-11-28T13:30:29.322Z,88.96
2022-11-28T13:33:43.779Z,88.79
2022-11-28T13:39:26.534Z,88.84
2022-11-28T13:42:21.826Z,88.76
2022-11-28T13:44:59.213Z,88.91
2022-11-28T13:47:27.773Z,88.92
2022-11-28T13:50:28.494Z,88.92
2022-11-28T13:53:00.514Z,88.93
2022-11-28T13:55:51.256Z,88.95
2022-11-28T13:58:28.714Z,88.92
2022-11-28T14:01:15.167Z,89.01
2022-11-28T14:03:52.067Z,88.86
2022-11-28T14:06:25.559Z,88.83
2022-11-28T14:09:29.901Z,88.94
2022-11-28T14:12:07.715Z,89.07
2022-11-28T14:15:12.117Z,89.10
2022-11-28T14:17:56.868Z,89.20
2022-11-28T14:20:29.706Z,89.09
2022-11-28T14:23:00.170Z,89.12
2022-11-28T14:25:31.712Z,89.32
2022-11-28T14:28:05.659Z,89.36
2022-11-28T14:30:40.076Z,89.34
2022-11-28T14:33:46.530Z,89.57
2022-11-28T14:36:28.833Z,89.66
2022-11-28T14:39:14.393Z,89.61
2022-11-28T14:42:04.488Z,89.47
2022-11-28T14:44:50.976Z,89.41
2022-11-28T14:47:34.380Z,89.39
2022-11-28T14:50:07.925Z,89.34
2022-11-28T14:52:40.945Z,89.37
2022-11-28T14:55:12.379Z,89.42
2022-11-28T14:57:58.600Z,89.54
2022-11-28T15:00:38.325Z,89.63
2022-11-28T15:03:08.879Z,89.63
2022-11-28T15:05:49.844Z,89.62
2022-11-28T15:08:45.548Z,89.68
2022-11-28T15:11:35.319Z,89.71
2022-11-28T15:14:33.539Z,89.68
2022-11-28T15:17:04.959Z,89.66
2022-11-28T15:19:38.523Z,89.69
2022-11-28T15:22:05.817Z,89.61
2022-11-28T15:24:35.854Z,89.67
2022-11-28T15:27:25.809Z,89.69
2022-11-28T15:30:01.158Z,89.72
2022-11-28T15:32:30.988Z,89.56
2022-11-28T15:35:05.440Z,89.58
2022-11-28T15:37:36.546Z,89.53
2022-11-28T15:40:06.116Z,89.54
2022-11-28T15:42:38.530Z,89.41
2022-11-28T15:45:13.610Z,89.32
2022-11-28T15:47:40.573Z,89.45
2022-11-28T15:50:10.166Z,89.48
2022-11-28T15:52:37.732Z,89.53
2022-11-28T15:55:17.695Z,89.51
2022-11-28T15:57:44.665Z,89.42
2022-11-28T16:00:13.872Z,89.43
2022-11-28T16:02:42.413Z,89.29
2022-11-28T16:05:21.817Z,89.35
2022-11-28T16:07:52.375Z,89.41
2022-11-28T16:10:34.922Z,89.21
2022-11-28T16:13:04.640Z,89.09
2022-11-28T16:15:32.163Z,88.98
2022-11-28T16:17:59.028Z,88.96
2022-11-28T16:20:28.865Z,88.92
2022-11-28T16:23:00.212Z,88.86
2022-11-28T16:25:27.584Z,88.83
2022-11-28T16:27:57.358Z,88.86
2022-11-28T16:30:31.158Z,88.81
2022-11-28T16:32:58.180Z,88.80
2022-11-28T16:35:33.559Z,88.75
2022-11-28T16:38:05.448Z,88.74
2022-11-28T16:40:32.629Z,88.59
2022-11-28T16:42:59.718Z,88.69
2022-11-28T16:45:29.435Z,88.74
2022-11-28T16:48:18.469Z,88.64
2022-11-28T16:51:12.685Z,88.48
2022-11-28T16:53:55.147Z,88.40
2022-11-28T16:56:31.649Z,88.56
2022-11-28T16:59:05.554Z,88.60
2022-11-28T17:01:32.656Z,88.61
2022-11-28T17:03:59.762Z,88.54
2022-11-28T17:06:39.751Z,88.55
2022-11-28T17:09:09.445Z,88.51
2022-11-28T17:11:40.432Z,88.35
2022-11-28T17:14:13.100Z,88.22
2022-11-28T17:16:41.474Z,88.20
2022-11-28T17:19:08.331Z,88.22
2022-11-28T17:21:43.507Z,88.15
2022-11-28T17:24:25.377Z,88.16
2022-11-28T17:26:53.810Z,88.05
2022-11-28T17:29:21.670Z,88.05
2022-11-28T17:31:49.531Z,88.10
2022-11-28T17:34:27.516Z,88.06
2022-11-28T17:36:54.540Z,88.09
2022-11-28T17:39:21.295Z,87.69
2022-11-28T17:41:48.636Z,88.15
2022-11-28T17:44:41.938Z,88.20
2022-11-28T17:47:09.173Z,87.88
2022-11-28T17:49:35.905Z,87.67
2022-11-28T17:52:02.804Z,87.64
2022-11-28T17:54:29.804Z,87.70
2022-11-28T17:56:57.744Z,87.73
2022-11-28T17:59:24.788Z,87.73
2022-11-28T18:01:51.961Z,87.67
2022-11-28T18:04:23.617Z,87.53
2022-11-28T18:06:50.935Z,87.63
2022-11-28T18:09:17.682Z,87.59
2022-11-28T18:11:46.748Z,87.62
2022-11-28T18:14:14.048Z,87.65
2022-11-28T18:16:43.842Z,87.67
2022-11-28T18:19:11.224Z,87.75
2022-11-28T18:21:38.572Z,87.57
2022-11-28T18:24:05.730Z,87.54
2022-11-28T18:26:32.795Z,87.38
2022-11-28T18:29:00.329Z,87.50
2022-11-28T18:31:29.227Z,87.32
2022-11-28T18:34:03.580Z,87.30
2022-11-28T18:36:35.304Z,87.26
2022-11-28T18:39:07.419Z,87.16
2022-11-28T18:41:35.613Z,87.34
2022-11-28T18:44:04.877Z,87.38
2022-11-28T18:46:32.955Z,87.27
2022-11-28T18:48:59.909Z,87.19
2022-11-28T18:51:32.960Z,87.23
2022-11-28T18:54:04.016Z,87.19
2022-11-28T18:56:31.825Z,87.21
2022-11-28T18:58:59.355Z,87.15
2022-11-28T19:01:34.829Z,87.03
2022-11-28T19:04:07.263Z,87.06
2022-11-28T19:06:35.650Z,87.01
2022-11-28T19:09:05.638Z,87.00
2022-11-28T19:11:33.429Z,87.03
2022-11-28T19:14:01.243Z,86.86
2022-11-28T19:16:31.572Z,86.77
2022-11-28T19:18:59.119Z,86.70
2022-11-28T19:21:29.151Z,86.79
2022-11-28T19:23:56.984Z,86.80
2022-11-28T19:26:25.952Z,86.68
2022-11-28T19:28:53.861Z,86.67
2022-11-28T19:31:23.551Z,86.61
2022-11-28T19:34:02.217Z,86.54
2022-11-28T19:36:33.687Z,86.40
2022-11-28T19:39:01.371Z,86.42
2022-11-28T19:41:29.916Z,86.34
2022-11-28T19:43:57.555Z,86.46
2022-11-28T19:46:24.661Z,86.35
2022-11-28T19:48:51.960Z,86.57
2022-11-28T19:51:20.394Z,86.52
2022-11-28T19:53:47.740Z,86.40
2022-11-28T19:56:18.224Z,86.39
2022-11-28T19:58:45.959Z,86.32
2022-11-28T20:01:22.213Z,86.29
2022-11-28T20:03:52.894Z,86.22
2022-11-28T20:06:24.807Z,86.16
2022-11-28T20:08:53.851Z,86.02
2022-11-28T20:11:23.798Z,86.10
2022-11-28T20:14:02.237Z,85.86
2022-11-28T20:16:31.101Z,85.96
2022-11-28T20:19:00.550Z,85.87
2022-11-28T20:21:28.623Z,85.89
2022-11-28T20:23:58.068Z,85.84
2022-11-28T20:26:26.985Z,85.68
2022-11-28T20:28:56.121Z,85.68
2022-11-28T20:31:33.928Z,85.59
2022-11-28T20:34:01.526Z,85.58
2022-11-28T20:36:30.676Z,85.56
2022-11-28T20:38:58.872Z,85.49
2022-11-28T20:41:26.822Z,85.46
2022-11-28T20:43:54.270Z,85.29
2022-11-28T20:46:28.149Z,85.24
2022-11-28T20:48:57.918Z,85.26
2022-11-28T20:51:26.856Z,85.19
2022-11-28T20:53:54.975Z,85.26
2022-11-28T20:56:24.202Z,85.13
2022-11-28T20:58:51.616Z,85.09
2022-11-28T21:01:20.202Z,85.22
2022-11-28T21:03:47.344Z,85.25
2022-11-28T21:06:14.413Z,85.25
2022-11-28T21:08:41.830Z,85.19
2022-11-28T21:11:30.938Z,85.00
2022-11-28T21:14:04.960Z,85.12
2022-11-28T21:16:33.140Z,85.03
2022-11-28T21:19:04.805Z,84.90
2022-11-28T21:21:33.144Z,85.00
2022-11-28T21:24:10.278Z,85.07
2022-11-28T21:26:41.067Z,85.05
2022-11-28T21:29:11.737Z,84.90
2022-11-28T21:31:42.944Z,84.97
2022-11-28T21:34:16.572Z,84.74
2022-11-28T21:36:44.424Z,84.66
2022-11-28T21:39:14.681Z,84.69
2022-11-28T21:41:41.816Z,84.74
2022-11-28T21:44:08.828Z,84.60
2022-11-28T21:46:35.889Z,84.64
2022-11-28T21:49:02.772Z,84.58
2022-11-28T21:51:29.695Z,84.53
2022-11-28T21:54:00.000Z,84.73
2022-11-28T21:56:27.188Z,84.55
2022-11-28T21:58:54.847Z,84.37
2022-11-28T22:01:24.068Z,84.29
2022-11-28T22:03:50.893Z,84.34
2022-11-28T22:06:21.871Z,84.31
2022-11-28T22:08:49.714Z,84.13
2022-11-28T22:11:17.050Z,84.20
2022-11-28T22:13:47.811Z,84.32
2022-11-28T22:16:16.446Z,84.23
2022-11-28T22:18:44.697Z,84.19
2022-11-28T22:21:43.348Z,84.10
2022-11-28T22:23:58.752Z,84.09
2022-11-28T22:26:26.119Z,84.16
2022-11-28T22:28:54.392Z,84.17
2022-11-28T22:31:23.241Z,84.16
2022-11-28T22:33:50.705Z,84.08
2022-11-28T22:36:20.201Z,84.10
2022-11-28T22:38:49.073Z,84.00
2022-11-28T22:41:27.844Z,83.94
2022-11-28T22:44:00.577Z,84.04
2022-11-28T22:46:28.416Z,84.03
2022-11-28T22:48:55.193Z,83.99
2022-11-28T22:51:24.805Z,84.03
2022-11-28T22:53:57.676Z,83.84
2022-11-28T22:56:27.130Z,83.78
2022-11-28T22:58:54.468Z,83.78
2022-11-28T23:01:24.336Z,83.56
2022-11-28T23:03:52.022Z,83.73
2022-11-28T23:06:25.106Z,83.58
2022-11-28T23:08:56.582Z,83.43
2022-11-28T23:11:28.039Z,83.57
2022-11-28T23:13:55.468Z,83.60
2022-11-28T23:16:28.606Z,83.68
2022-11-28T23:19:01.706Z,83.36
2022-11-28T23:21:35.030Z,83.40
2022-11-28T23:24:03.151Z,83.33
2022-11-28T23:26:31.523Z,83.27
2022-11-28T23:29:02.402Z,83.36
2022-11-28T23:31:31.439Z,83.26
2022-11-28T23:34:00.360Z,83.43
2022-11-28T23:36:30.241Z,83.46
2022-11-28T23:39:01.065Z,83.32
2022-11-28T23:41:29.408Z,83.21
2022-11-28T23:43:56.622Z,83.19
2022-11-28T23:46:24.455Z,83.23
2022-11-28T23:48:51.616Z,83.18
2022-11-28T23:51:21.840Z,83.16
2022-11-28T23:53:50.105Z,83.04
2022-11-28T23:56:21.322Z,82.99
2022-11-28T23:58:48.769Z,83.04
